createdAt,value
2022-08-01T00:05:43.936Z,2.85
2022-08-01T00:08:11.450Z,2.95
2022-08-01T00:10:39.114Z,3.28
2022-08-01T00:13:06.668Z,3.03
2022-08-01T00:15:34.352Z,3.20
2022-08-01T00:18:01.983Z,2.80
2022-08-01T00:20:29.940Z,3.33
2022-08-01T00:27:56.483Z,2.75
2022-08-01T00:30:24.471Z,2.97
2022-08-01T00:32:52.004Z,2.70
2022-08-01T00:35:19.941Z,3.13
2022-08-01T00:37:47.501Z,3.33
2022-08-01T00:40:15.088Z,2.90
2022-08-01T00:42:43.763Z,2.55
2022-08-01T00:49:23.923Z,2.72
2022-08-01T00:51:51.668Z,3.05
2022-08-01T00:54:19.744Z,2.75
2022-08-01T00:56:47.768Z,3.05
2022-08-01T00:59:18.074Z,2.45
2022-08-01T01:01:49.914Z,2.85
2022-08-01T01:04:18.007Z,2.97
2022-08-01T01:09:34.483Z,2.30
2022-08-01T01:12:12.385Z,2.88
2022-08-01T01:14:46.745Z,2.67
2022-08-01T01:17:17.526Z,2.67
2022-08-01T01:20:01.904Z,2.58
2022-08-01T01:22:48.585Z,2.58
2022-08-01T01:28:34.828Z,2.40
2022-08-01T01:31:07.355Z,2.15
2022-08-01T01:33:45.201Z,1.88
2022-08-01T01:36:17.652Z,2.08
2022-08-01T01:38:47.842Z,1.83
2022-08-01T01:41:18.067Z,1.70
2022-08-01T01:43:47.269Z,2.17
2022-08-01T01:51:21.968Z,2.00
2022-08-01T01:53:49.797Z,1.40
2022-08-01T01:56:18.276Z,1.67
2022-08-01T01:58:49.791Z,1.90
2022-08-01T02:01:58.748Z,1.75
2022-08-01T02:04:07.411Z,1.98
2022-08-01T02:06:36.331Z,1.52
2022-08-01T02:14:09.117Z,1.85
2022-08-01T02:16:40.695Z,1.90
2022-08-01T02:19:08.730Z,2.00
2022-08-01T02:21:42.449Z,1.75
2022-08-01T02:24:15.718Z,1.85
2022-08-01T02:26:47.469Z,1.67
2022-08-01T02:29:22.690Z,1.77
2022-08-01T02:36:50.402Z,1.50
2022-08-01T02:39:22.187Z,1.75
2022-08-01T02:41:55.656Z,2.80
2022-08-01T02:44:25.974Z,1.20
2022-08-01T02:46:58.125Z,1.70
2022-08-01T02:49:29.012Z,1.60
2022-08-01T02:52:00.068Z,1.85
2022-08-01T02:59:02.703Z,1.60
2022-08-01T03:01:33.030Z,1.67
2022-08-01T03:04:00.954Z,1.90
2022-08-01T03:06:30.255Z,1.27
2022-08-01T03:08:59.265Z,2.05
2022-08-01T03:11:28.896Z,1.52
2022-08-01T03:13:58.988Z,1.52
2022-08-01T03:21:28.911Z,1.70
2022-08-01T03:23:58.976Z,1.73
2022-08-01T03:26:29.766Z,1.30
2022-08-01T03:29:03.043Z,1.33
2022-08-01T03:31:31.375Z,2.00
2022-08-01T03:34:04.027Z,1.52
2022-08-01T03:39:13.700Z,1.70
2022-08-01T03:41:44.865Z,2.63
2022-08-01T03:44:16.733Z,1.50
2022-08-01T03:46:48.322Z,1.40
2022-08-01T03:49:19.620Z,1.90
2022-08-01T03:51:49.933Z,1.70
2022-08-01T03:54:29.558Z,1.75
2022-08-01T04:01:24.210Z,1.63
2022-08-01T04:03:52.078Z,1.73
2022-08-01T04:06:19.780Z,1.50
2022-08-01T04:08:55.795Z,1.92
2022-08-01T04:11:25.252Z,1.30
2022-08-01T04:13:53.893Z,1.75
2022-08-01T04:16:24.032Z,1.88
2022-08-01T04:21:36.696Z,1.63
2022-08-01T04:24:08.772Z,2.08
2022-08-01T04:26:38.681Z,1.77
2022-08-01T04:29:07.730Z,2.00
2022-08-01T04:31:37.079Z,2.15
2022-08-01T04:34:06.735Z,2.25
2022-08-01T04:39:19.047Z,2.03
2022-08-01T04:41:47.531Z,1.60
2022-08-01T04:44:15.514Z,2.22
2022-08-01T04:46:43.523Z,2.00
2022-08-01T04:49:12.294Z,2.42
2022-08-01T04:51:51.959Z,2.03
2022-08-01T04:54:22.034Z,1.90
2022-08-01T05:01:53.060Z,1.98
2022-08-01T05:04:20.533Z,2.30
2022-08-01T05:06:47.932Z,2.13
2022-08-01T05:09:15.451Z,1.98
2022-08-01T05:11:42.887Z,1.70
2022-08-01T05:14:10.341Z,2.03
2022-08-01T05:16:38.030Z,2.00
2022-08-01T05:23:43.088Z,2.33
2022-08-01T05:26:11.632Z,1.98
2022-08-01T05:28:42.490Z,1.77
2022-08-01T05:31:10.264Z,1.58
2022-08-01T05:33:37.696Z,2.10
2022-08-01T05:36:06.052Z,1.63
2022-08-01T05:38:33.628Z,1.75
2022-08-01T05:45:50.793Z,1.83
2022-08-01T05:48:18.330Z,1.70
2022-08-01T05:50:46.409Z,1.85
2022-08-01T05:53:13.929Z,1.35
2022-08-01T05:55:41.404Z,1.50
2022-08-01T05:58:08.983Z,1.10
2022-08-01T06:00:40.096Z,1.60
2022-08-01T06:08:10.672Z,1.70
2022-08-01T06:10:38.085Z,1.50
2022-08-01T06:13:05.550Z,1.80
2022-08-01T06:15:33.390Z,1.70
2022-08-01T06:18:00.861Z,2.10
2022-08-01T06:20:28.441Z,1.27
2022-08-01T06:22:55.915Z,1.25
2022-08-01T06:28:01.712Z,1.48
2022-08-01T06:30:29.369Z,1.27
2022-08-01T06:32:59.001Z,1.70
2022-08-01T06:35:27.204Z,1.40
2022-08-01T06:37:54.948Z,1.42
2022-08-01T06:40:22.566Z,1.45
2022-08-01T06:42:50.271Z,1.42
2022-08-01T06:49:57.485Z,1.67
2022-08-01T06:52:25.363Z,1.20
2022-08-01T06:54:53.532Z,1.65
2022-08-01T06:57:21.333Z,1.83
2022-08-01T06:59:54.126Z,2.05
2022-08-01T07:02:22.154Z,1.70
2022-08-01T07:04:49.658Z,1.50
2022-08-01T07:11:59.529Z,1.48
2022-08-01T07:14:27.218Z,1.60
2022-08-01T07:16:54.955Z,1.50
2022-08-01T07:19:22.575Z,1.30
2022-08-01T07:21:50.288Z,1.30
2022-08-01T07:24:19.593Z,1.60
2022-08-01T07:26:53.436Z,1.70
2022-08-01T07:33:55.445Z,1.65
2022-08-01T07:36:23.041Z,1.40
2022-08-01T07:38:50.558Z,1.60
2022-08-01T07:41:18.280Z,1.80
2022-08-01T07:43:56.059Z,1.98
2022-08-01T07:46:25.408Z,1.85
2022-08-01T07:48:53.112Z,1.77
2022-08-01T07:56:20.182Z,1.40
2022-08-01T07:58:48.765Z,1.67
2022-08-01T08:01:16.198Z,1.30
2022-08-01T08:03:43.633Z,1.60
2022-08-01T08:06:11.162Z,1.52
2022-08-01T08:08:38.699Z,1.45
2022-08-01T08:11:06.216Z,1.40
2022-08-01T08:19:22.672Z,2.20
2022-08-01T08:22:07.752Z,1.70
2022-08-01T08:24:35.640Z,2.13
2022-08-01T08:27:03.294Z,1.90
2022-08-01T08:29:32.920Z,1.52
2022-08-01T08:32:01.217Z,1.60
2022-08-01T08:34:30.017Z,1.30
2022-08-01T08:41:37.831Z,1.50
2022-08-01T08:44:10.031Z,1.53
2022-08-01T08:46:44.270Z,1.40
2022-08-01T08:49:13.282Z,1.92
2022-08-01T08:51:44.472Z,1.50
2022-08-01T08:54:13.700Z,1.67
2022-08-01T08:56:42.719Z,1.80
2022-08-01T09:04:13.767Z,1.50
2022-08-01T09:06:41.486Z,1.90
2022-08-01T09:09:10.102Z,1.50
2022-08-01T09:11:37.934Z,1.65
2022-08-01T09:14:08.213Z,1.52
2022-08-01T09:16:38.565Z,1.48
2022-08-01T09:19:16.120Z,1.60
2022-08-01T09:26:00.938Z,1.70
2022-08-01T09:28:29.701Z,1.73
2022-08-01T09:30:57.456Z,1.65
2022-08-01T09:33:25.578Z,1.70
2022-08-01T09:35:56.590Z,1.77
2022-08-01T09:38:27.595Z,1.70
2022-08-01T09:40:58.545Z,1.20
2022-08-01T09:48:12.959Z,1.25
2022-08-01T09:50:42.039Z,1.33
2022-08-01T09:53:10.058Z,1.83
2022-08-01T09:55:52.937Z,1.33
2022-08-01T09:58:21.070Z,1.50
2022-08-01T10:01:00.227Z,1.73
2022-08-01T10:03:30.121Z,1.40
2022-08-01T10:11:12.150Z,1.20
2022-08-01T10:13:41.033Z,1.50
2022-08-01T10:16:10.057Z,1.55
2022-08-01T10:18:42.003Z,1.67
2022-08-01T10:21:11.422Z,1.80
2022-08-01T10:23:40.171Z,2.28
2022-08-01T10:29:45.939Z,2.00
2022-08-01T10:32:17.204Z,1.80
2022-08-01T10:34:45.833Z,1.80
2022-08-01T10:37:15.087Z,1.55
2022-08-01T10:39:43.840Z,1.88
2022-08-01T10:42:15.584Z,1.85
2022-08-01T10:44:46.782Z,1.73
2022-08-01T10:52:20.036Z,1.70
2022-08-01T10:54:52.244Z,1.58
2022-08-01T10:57:23.239Z,2.05
2022-08-01T11:00:00.905Z,1.73
2022-08-01T11:02:33.993Z,1.90
2022-08-01T11:05:04.311Z,1.80
2022-08-01T11:07:54.853Z,1.80
2022-08-01T11:15:29.037Z,1.90
2022-08-01T11:18:03.428Z,2.00
2022-08-01T11:20:34.167Z,2.20
2022-08-01T11:23:28.075Z,2.60
2022-08-01T11:26:17.431Z,1.85
2022-08-01T11:29:05.057Z,2.25
2022-08-01T11:35:02.960Z,2.28
2022-08-01T11:37:34.534Z,2.03
2022-08-01T11:40:16.566Z,2.30
2022-08-01T11:42:45.192Z,2.08
2022-08-01T11:45:18.091Z,2.38
2022-08-01T11:47:49.810Z,2.65
2022-08-01T11:54:05.906Z,2.00
2022-08-01T11:56:34.250Z,1.70
2022-08-01T11:59:01.718Z,2.15
2022-08-01T12:01:31.514Z,1.80
2022-08-01T12:03:59.081Z,1.85
2022-08-01T12:06:29.042Z,1.80
2022-08-01T12:09:15.405Z,2.08
2022-08-01T12:16:33.231Z,1.80
2022-08-01T12:19:01.143Z,1.60
2022-08-01T12:21:28.595Z,1.88
2022-08-01T12:24:02.372Z,1.75
2022-08-01T12:26:41.351Z,2.00
2022-08-01T12:29:08.821Z,1.85
2022-08-01T12:31:37.827Z,1.60
2022-08-01T12:36:47.709Z,2.22
2022-08-01T12:39:15.367Z,1.70
2022-08-01T12:41:44.804Z,1.30
2022-08-01T12:44:15.579Z,1.75
2022-08-01T12:46:44.596Z,1.58
2022-08-01T12:49:12.197Z,1.50
2022-08-01T12:51:40.108Z,1.60
2022-08-01T12:59:25.945Z,1.75
2022-08-01T13:01:59.224Z,1.38
2022-08-01T13:04:27.187Z,1.60
2022-08-01T13:06:55.378Z,1.48
2022-08-01T13:09:22.835Z,1.60
2022-08-01T13:11:58.898Z,2.03
2022-08-01T13:14:33.555Z,1.60
2022-08-01T13:21:56.391Z,1.83
2022-08-01T13:24:26.546Z,1.65
2022-08-01T13:26:59.039Z,1.50
2022-08-01T13:29:34.397Z,1.40
2022-08-01T13:32:13.169Z,1.40
2022-08-01T13:35:02.317Z,1.48
2022-08-01T13:37:32.415Z,1.52
2022-08-01T13:45:04.055Z,1.65
2022-08-01T13:48:03.334Z,1.48
2022-08-01T13:50:29.692Z,1.60
2022-08-01T13:52:57.227Z,1.50
2022-08-01T13:55:24.742Z,1.30
2022-08-01T13:57:52.227Z,1.35
2022-08-01T14:00:21.231Z,1.45
2022-08-01T14:07:48.542Z,1.75
2022-08-01T14:10:19.335Z,1.60
2022-08-01T14:12:48.573Z,1.30
2022-08-01T14:15:36.500Z,1.50
2022-08-01T14:18:05.913Z,1.35
2022-08-01T14:20:34.028Z,1.15
2022-08-01T14:23:02.867Z,1.35
2022-08-01T14:28:08.441Z,1.30
2022-08-01T14:30:36.040Z,1.10
2022-08-01T14:33:04.150Z,0.95
2022-08-01T14:36:01.758Z,1.27
2022-08-01T14:38:21.866Z,1.20
2022-08-01T14:40:59.818Z,1.30
2022-08-01T14:43:33.139Z,1.25
2022-08-01T14:48:44.957Z,1.50
2022-08-01T14:51:12.664Z,1.25
2022-08-01T14:53:41.583Z,1.30
2022-08-01T14:56:14.843Z,1.20
2022-08-01T14:58:42.552Z,1.20
2022-08-01T15:01:10.216Z,1.38
2022-08-01T15:03:38.594Z,1.30
2022-08-01T15:08:44.690Z,1.30
2022-08-01T15:11:12.570Z,1.02
2022-08-01T15:13:42.562Z,0.95
2022-08-01T15:16:11.905Z,1.20
2022-08-01T15:18:42.398Z,0.82
2022-08-01T15:21:14.542Z,1.23
2022-08-01T15:23:50.722Z,0.95
2022-08-01T15:30:56.254Z,0.88
2022-08-01T15:33:24.048Z,0.90
2022-08-01T15:35:52.938Z,1.02
2022-08-01T15:38:21.936Z,0.90
2022-08-01T15:40:49.559Z,1.10
2022-08-01T15:43:17.153Z,0.80
2022-08-01T15:45:47.756Z,0.88
2022-08-01T15:52:57.923Z,0.90
2022-08-01T15:55:25.794Z,0.90
2022-08-01T15:57:53.442Z,0.93
2022-08-01T16:00:21.080Z,0.98
2022-08-01T16:02:48.724Z,1.02
2022-08-01T16:05:20.331Z,1.00
2022-08-01T16:07:59.686Z,1.08
2022-08-01T16:15:36.151Z,0.77
2022-08-01T16:18:05.612Z,0.90
2022-08-01T16:20:33.667Z,0.90
2022-08-01T16:23:01.410Z,1.05
2022-08-01T16:25:29.235Z,0.80
2022-08-01T16:27:56.929Z,1.00
2022-08-01T16:30:25.532Z,0.90
2022-08-01T16:37:06.390Z,1.10
2022-08-01T16:39:35.490Z,1.63
2022-08-01T16:42:03.363Z,0.98
2022-08-01T16:44:33.773Z,1.50
2022-08-01T16:47:03.757Z,1.17
2022-08-01T16:49:31.978Z,1.40
2022-08-01T16:54:39.371Z,1.00
2022-08-01T16:57:08.628Z,0.70
2022-08-01T16:59:41.202Z,1.10
2022-08-01T17:02:10.886Z,1.17
2022-08-01T17:04:38.670Z,1.00
2022-08-01T17:07:06.511Z,0.98
2022-08-01T17:09:34.368Z,1.00
2022-08-01T17:16:57.129Z,1.10
2022-08-01T17:19:26.779Z,1.20
2022-08-01T17:22:01.153Z,0.90
2022-08-01T17:24:28.913Z,0.88
2022-08-01T17:26:56.470Z,0.98
2022-08-01T17:29:24.169Z,1.20
2022-08-01T17:31:52.192Z,1.40
2022-08-01T17:39:23.515Z,0.98
2022-08-01T17:41:51.653Z,1.00
2022-08-01T17:44:19.334Z,1.23
2022-08-01T17:46:47.036Z,0.90
2022-08-01T17:49:14.692Z,1.02
2022-08-01T17:51:42.473Z,1.20
2022-08-01T17:54:11.836Z,1.05
2022-08-01T18:01:38.684Z,1.27
2022-08-01T18:04:13.242Z,0.98
2022-08-01T18:06:58.507Z,1.40
2022-08-01T18:09:26.753Z,1.00
2022-08-01T18:11:54.558Z,0.88
2022-08-01T18:14:22.231Z,1.02
2022-08-01T18:20:06.105Z,0.88
2022-08-01T18:22:34.224Z,0.90
2022-08-01T18:25:08.355Z,0.80
2022-08-01T18:28:23.491Z,1.05
2022-08-01T18:30:25.781Z,1.20
2022-08-01T18:32:54.363Z,0.90
2022-08-01T18:38:45.565Z,1.45
2022-08-01T18:41:13.641Z,1.50
2022-08-01T18:43:41.307Z,1.52
2022-08-01T18:46:09.505Z,1.17
2022-08-01T18:48:37.378Z,1.13
2022-08-01T18:51:08.440Z,1.48
2022-08-01T18:53:38.724Z,1.25
2022-08-01T19:00:14.713Z,1.20
2022-08-01T19:02:42.309Z,1.55
2022-08-01T19:05:10.535Z,1.40
2022-08-01T19:08:04.355Z,1.30
2022-08-01T19:10:26.737Z,1.35
2022-08-01T19:12:54.333Z,1.23
2022-08-01T19:18:01.629Z,1.08
2022-08-01T19:20:29.963Z,1.35
2022-08-01T19:22:57.818Z,1.63
2022-08-01T19:25:25.996Z,1.83
2022-08-01T19:27:57.481Z,1.10
2022-08-01T19:30:25.418Z,1.00
2022-08-01T19:32:56.276Z,1.20
2022-08-01T19:39:47.418Z,1.50
2022-08-01T19:42:14.935Z,1.23
2022-08-01T19:44:44.649Z,1.30
2022-08-01T19:47:13.568Z,1.42
2022-08-01T19:49:41.224Z,1.23
2022-08-01T19:52:09.984Z,1.20
2022-08-01T19:54:41.349Z,1.48
2022-08-01T20:02:08.540Z,1.38
2022-08-01T20:04:36.805Z,1.70
2022-08-01T20:07:04.660Z,1.48
2022-08-01T20:09:33.508Z,1.52
2022-08-01T20:12:01.021Z,1.55
2022-08-01T20:14:28.528Z,1.40
2022-08-01T20:16:56.702Z,1.45
2022-08-01T20:24:29.246Z,1.40
2022-08-01T20:27:01.275Z,1.33
2022-08-01T20:29:29.991Z,1.13
2022-08-01T20:31:58.538Z,1.20
2022-08-01T20:34:26.941Z,1.50
2022-08-01T20:36:56.811Z,1.30
2022-08-01T20:39:25.004Z,1.30
2022-08-01T20:46:09.098Z,1.27
2022-08-01T20:48:36.647Z,1.45
2022-08-01T20:51:16.076Z,1.40
2022-08-01T20:53:45.152Z,1.35
2022-08-01T20:56:17.567Z,1.35
2022-08-01T20:58:58.268Z,1.73
2022-08-01T21:01:30.257Z,1.38
2022-08-01T21:09:05.729Z,1.55
2022-08-01T21:11:40.673Z,1.50
2022-08-01T21:14:12.504Z,1.20
2022-08-01T21:16:46.600Z,1.05
2022-08-01T21:19:20.193Z,1.50
2022-08-01T21:21:54.822Z,1.80
2022-08-01T21:28:54.741Z,1.30
2022-08-01T21:31:23.843Z,1.60
2022-08-01T21:34:00.735Z,1.25
2022-08-01T21:36:31.982Z,1.38
2022-08-01T21:39:00.569Z,1.33
2022-08-01T21:41:56.160Z,1.17
2022-08-01T21:47:43.887Z,1.10
2022-08-01T21:50:11.333Z,1.55
2022-08-01T21:52:44.718Z,1.45
2022-08-01T21:55:34.939Z,1.30
2022-08-01T21:58:28.762Z,1.48
2022-08-01T22:01:03.746Z,1.05
2022-08-01T22:06:23.985Z,1.20
2022-08-01T22:08:53.290Z,1.17
2022-08-01T22:11:23.096Z,1.10
2022-08-01T22:13:54.177Z,1.17
2022-08-01T22:16:22.319Z,1.20
2022-08-01T22:18:50.941Z,1.05
2022-08-01T22:21:18.703Z,1.30
2022-08-01T22:28:15.335Z,1.00
2022-08-01T22:30:43.261Z,1.02
2022-08-01T22:33:16.962Z,1.60
2022-08-01T22:35:46.225Z,1.30
2022-08-01T22:38:13.980Z,1.17
2022-08-01T22:40:49.131Z,1.10
2022-08-01T22:43:38.567Z,1.05
2022-08-01T22:50:56.432Z,1.00
2022-08-01T22:53:32.953Z,1.10
2022-08-01T22:56:08.538Z,1.33
2022-08-01T22:58:36.394Z,1.05
2022-08-01T23:01:09.411Z,1.15
2022-08-01T23:03:40.706Z,1.45
2022-08-01T23:13:19.199Z,1.10
2022-08-01T23:15:52.069Z,1.20
2022-08-01T23:18:21.440Z,1.10
2022-08-01T23:20:50.516Z,1.40
2022-08-01T23:23:18.850Z,1.08
2022-08-01T23:25:59.913Z,1.13
2022-08-01T23:28:29.283Z,1.10
2022-08-01T23:36:07.405Z,1.00
2022-08-01T23:38:35.206Z,1.05
2022-08-01T23:41:14.271Z,1.02
2022-08-01T23:43:51.937Z,0.93
2022-08-01T23:46:19.968Z,1.00
2022-08-01T23:48:47.404Z,1.10
2022-08-01T23:51:24.262Z,1.02
2022-08-01T23:58:55.866Z,1.17
